Baarn, Netherlands
Current Conditions -  °F | °C
As of 8:55 PM on Sunday 23 Nov 2014 (Local Time) from EHAM Reporting Station
Light Rain Light Rain  
Wind Chill: 52°   Ceiling: 800
Heat Index: 52°   Visibility: 6mi
Dew Point: 50°   Wind: 15mph
Humidity: 94%   Direction: 350°N
Pressure: 29.91"   Gusts: NA
Location:  52.21°N, 5.29°E
Report Text: EHAM 231955Z 35013KT 320V020 9999 -RADZ FEW005 BKN008 OVC01511/10 Q1013 NOSIG
Loading
Personal Weather Stations






























Interactive Weather Map New forecast layout! Learn more

10-Day Weather Forecast

Advertisements
Track Severe Weather on mobile